Irvington, AL

10:10 PM CDT on June 02, 2015 (GMT -0500)
Mobile Downtown | | Change Station
CLOSE
Current Station
Airport
Location: Mobile Downtown,
Elevation: 23 ft
Nearby Weather Stations

Elev 23 ft 30.63 °N, 88.07 °W | Updated 17 minutes ago

Mostly Cloudy
Mostly Cloudy
76 °F
Feels Like 76 °F
N
0
Wind Variable Wind from North

Today
High -- | Low -- °F
--% Chance of Precip.
Yesterday
High -- | Low -- °F
Precip. -- in
5:51 AM 7:50 PM
Full, 100% visible
Pressure 29.95 in
Visibility 10.0 miles
Clouds Few 4000 ft
Scattered Clouds 6000 ft
Overcast 8000 ft
Dew Point 72 °F
Humidity 87%
Rainfall 0.01 in
Snow Depth Not available.
UV 0 out of 12
Pollen 3.80 out of 12
Air Quality Not available.
Flu Activity Sporadic
METAR KBFM 030253Z AUTO 00000KT 10SM FEW040 SCT060 OVC080 24/22 A2995 RMK AO2 RAB25E36 SLP142 P0000 60000 T02440222 53007

More Conditions Fewer Conditions

Pressure 29.95 in
Visibility 10.0 miles
Clouds Few 4000 ft
Scattered Clouds 6000 ft
Overcast 8000 ft
Dew Point 72 °F
Humidity 87%
Rainfall 0.01 in
Snow Depth Not available.
UV 0 out of 12
Pollen 3.80 out of 12
Air Quality Not available.
Flu Activity Sporadic
METAR KBFM 030253Z AUTO 00000KT 10SM FEW040 SCT060 OVC080 24/22 A2995 RMK AO2 RAB25E36 SLP142 P0000 60000 T02440222 53007

More Conditions Fewer Conditions

10-Day Weather Forecast

×

Almanac

Astronomy

Jun. 02, 2015 Rise Set
Actual Time
Civil Twilight
Nautical Twilight
Astronomical Twilight
Moon
Length of Visible Light
Length of Day
Tomorrow will be .
, % of the Moon is Illuminated

Today's Extremes

State Highs State Lows

Community

WunderPhotos

Upload Photos

1,826,133 photos uploaded!

WunderBlogs® & News

Nearby

Air Quality

  Air Quality AQ Index Pollutant
Not available.

Snow Depth

Station Depth Elevation

Earthquake Activity

City Distance Mag. Time & Date
Minimum magnitude displayed is 2.5.

Coastal Water Temperatures

Place Temperature

Stations

Nearby Weather Stations

Station Location Temp. Windchill Dew Point Humidity Wind Precip. Elev Updated Type